sensor_id;sensor_type;location;lat;lon;timestamp;pressure;altitude;pressure_sealevel;temperature;humidity
71770;BME280;66386;52.122;5.420;2023-03-26T00:00:42;100811.19;;;6.69;96.43
71770;BME280;66386;52.122;5.420;2023-03-26T00:03:14;100818.91;;;6.68;96.17
71770;BME280;66386;52.122;5.420;2023-03-26T00:05:42;100814.63;;;6.68;96.45
71770;BME280;66386;52.122;5.420;2023-03-26T00:08:11;100813.78;;;6.68;96.31
71770;BME280;66386;52.122;5.420;2023-03-26T00:10:39;100812.09;;;6.67;96.37
71770;BME280;66386;52.122;5.420;2023-03-26T00:13:06;100815.47;;;6.67;96.35
71770;BME280;66386;52.122;5.420;2023-03-26T00:15:34;100814.69;;;6.65;96.40
71770;BME280;66386;52.122;5.420;2023-03-26T00:18:02;100811.31;;;6.64;96.39
71770;BME280;66386;52.122;5.420;2023-03-26T00:20:29;100808.78;;;6.63;96.23
71770;BME280;66386;52.122;5.420;2023-03-26T00:22:58;100802.81;;;6.62;96.49
71770;BME280;66386;52.122;5.420;2023-03-26T00:25:26;100802.03;;;6.60;96.51
71770;BME280;66386;52.122;5.420;2023-03-26T00:27:53;100802.88;;;6.59;96.41
71770;BME280;66386;52.122;5.420;2023-03-26T00:30:20;100804.56;;;6.60;96.50
71770;BME280;66386;52.122;5.420;2023-03-26T00:32:46;100796.09;;;6.58;96.21
71770;BME280;66386;52.122;5.420;2023-03-26T00:35:19;100805.47;;;6.58;96.35
71770;BME280;66386;52.122;5.420;2023-03-26T00:37:46;100797.84;;;6.56;96.35
71770;BME280;66386;52.122;5.420;2023-03-26T00:40:12;100789.34;;;6.56;96.21
71770;BME280;66386;52.122;5.420;2023-03-26T00:42:39;100787.66;;;6.55;96.14
71770;BME280;66386;52.122;5.420;2023-03-26T00:45:06;100785.19;;;6.52;96.31
71770;BME280;66386;52.122;5.420;2023-03-26T00:47:33;100779.28;;;6.48;96.00
71770;BME280;66386;52.122;5.420;2023-03-26T00:49:59;100768.31;;;6.44;96.02
71770;BME280;66386;52.122;5.420;2023-03-26T00:52:26;100780.25;;;6.42;95.91
71770;BME280;66386;52.122;5.420;2023-03-26T00:54:54;100776.06;;;6.40;96.04
71770;BME280;66386;52.122;5.420;2023-03-26T00:57:21;100764.16;;;6.39;96.30
71770;BME280;66386;52.122;5.420;2023-03-26T01:00:00;100759.13;;;6.36;96.32
71770;BME280;66386;52.122;5.420;2023-03-26T01:02:41;100762.50;;;6.36;96.17
71770;BME280;66386;52.122;5.420;2023-03-26T01:08:10;100765.91;;;6.37;96.09
71770;BME280;66386;52.122;5.420;2023-03-26T01:10:41;100766.72;;;6.39;96.18
71770;BME280;66386;52.122;5.420;2023-03-26T01:13:08;100762.44;;;6.39;96.26
71770;BME280;66386;52.122;5.420;2023-03-26T01:15:36;100756.47;;;6.40;96.20
71770;BME280;66386;52.122;5.420;2023-03-26T01:18:05;100753.94;;;6.39;96.22
71770;BME280;66386;52.122;5.420;2023-03-26T01:20:37;100741.22;;;6.37;96.61
71770;BME280;66386;52.122;5.420;2023-03-26T01:23:16;100741.25;;;6.36;96.01
71770;BME280;66386;52.122;5.420;2023-03-26T01:25:51;100733.59;;;6.36;96.33
71770;BME280;66386;52.122;5.420;2023-03-26T01:28:23;100727.66;;;6.34;96.24
71770;BME280;66386;52.122;5.420;2023-03-26T01:31:03;100722.59;;;6.32;96.35
71770;BME280;66386;52.122;5.420;2023-03-26T01:33:41;100720.03;;;6.32;96.30
71770;BME280;66386;52.122;5.420;2023-03-26T01:36:22;100723.47;;;6.33;96.52
71770;BME280;66386;52.122;5.420;2023-03-26T01:39:00;100722.56;;;6.34;96.48
71770;BME280;66386;52.122;5.420;2023-03-26T01:41:38;100716.59;;;6.35;96.39
71770;BME280;66386;52.122;5.420;2023-03-26T01:46:40;100712.28;;;6.38;96.64
71770;BME280;66386;52.122;5.420;2023-03-26T01:49:07;100711.38;;;6.39;96.70
71770;BME280;66386;52.122;5.420;2023-03-26T01:51:40;100703.72;;;6.39;96.54
71770;BME280;66386;52.122;5.420;2023-03-26T01:54:11;100698.66;;;6.38;96.64
71770;BME280;66386;52.122;5.420;2023-03-26T02:02:12;100689.38;;;6.35;96.91
71770;BME280;66386;52.122;5.420;2023-03-26T02:05:01;100682.56;;;6.34;96.90
71770;BME280;66386;52.122;5.420;2023-03-26T02:07:53;100677.50;;;6.33;97.05
71770;BME280;66386;52.122;5.420;2023-03-26T02:10:41;100669.88;;;6.31;96.76
71770;BME280;66386;52.122;5.420;2023-03-26T02:13:10;100667.38;;;6.29;96.85
71770;BME280;66386;52.122;5.420;2023-03-26T02:15:53;100664.03;;;6.26;96.76
71770;BME280;66386;52.122;5.420;2023-03-26T02:18:21;100667.44;;;6.25;96.85
71770;BME280;66386;52.122;5.420;2023-03-26T02:20:52;100670.03;;;6.23;96.75
71770;BME280;66386;52.122;5.420;2023-03-26T02:23:19;100666.69;;;6.21;96.64
71770;BME280;66386;52.122;5.420;2023-03-26T02:25:46;100656.59;;;6.17;96.70
71770;BME280;66386;52.122;5.420;2023-03-26T02:28:13;100655.72;;;6.18;96.60
71770;BME280;66386;52.122;5.420;2023-03-26T02:30:39;100650.50;;;6.22;96.50
71770;BME280;66386;52.122;5.420;2023-03-26T02:33:06;100652.16;;;6.23;96.73
71770;BME280;66386;52.122;5.420;2023-03-26T02:35:32;100656.38;;;6.26;96.93
71770;BME280;66386;52.122;5.420;2023-03-26T02:37:59;100648.72;;;6.26;97.00
71770;BME280;66386;52.122;5.420;2023-03-26T02:40:25;100643.56;;;6.27;96.99
71770;BME280;66386;52.122;5.420;2023-03-26T02:42:52;100638.44;;;6.29;96.74
71770;BME280;66386;52.122;5.420;2023-03-26T02:45:18;100639.22;;;6.33;97.16
71770;BME280;66386;52.122;5.420;2023-03-26T02:47:45;100639.19;;;6.34;97.02
71770;BME280;66386;52.122;5.420;2023-03-26T02:50:12;100634.00;;;6.37;97.20
71770;BME280;66386;52.122;5.420;2023-03-26T02:52:38;100635.69;;;6.38;97.23
71770;BME280;66386;52.122;5.420;2023-03-26T02:55:05;100629.69;;;6.39;97.27
71770;BME280;66386;52.122;5.420;2023-03-26T02:57:32;100632.22;;;6.41;97.30
71770;BME280;66386;52.122;5.420;2023-03-26T02:59:59;100635.63;;;6.41;97.17
71770;BME280;66386;52.122;5.420;2023-03-26T03:02:27;100627.09;;;6.41;97.29
71770;BME280;66386;52.122;5.420;2023-03-26T03:04:54;100634.72;;;6.44;97.43
71770;BME280;66386;52.122;5.420;2023-03-26T03:07:26;100629.56;;;6.45;97.33
71770;BME280;66386;52.122;5.420;2023-03-26T03:09:54;100620.94;;;6.50;97.25
71770;BME280;66386;52.122;5.420;2023-03-26T03:12:20;100616.66;;;6.52;97.33
71770;BME280;66386;52.122;5.420;2023-03-26T03:14:46;100614.84;;;6.55;97.50
71770;BME280;66386;52.122;5.420;2023-03-26T03:17:13;100613.09;;;6.59;97.52
71770;BME280;66386;52.122;5.420;2023-03-26T03:19:39;100615.53;;;6.63;97.61
71770;BME280;66386;52.122;5.420;2023-03-26T03:22:06;100612.94;;;6.65;97.40
71770;BME280;66386;52.122;5.420;2023-03-26T03:24:32;100606.88;;;6.69;97.41
71770;BME280;66386;52.122;5.420;2023-03-26T03:26:59;100605.94;;;6.73;97.75
71770;BME280;66386;52.122;5.420;2023-03-26T03:29:25;100602.41;;;6.77;97.73
71770;BME280;66386;52.122;5.420;2023-03-26T03:31:52;100603.19;;;6.81;97.67
71770;BME280;66386;52.122;5.420;2023-03-26T03:34:18;100598.00;;;6.84;98.00
71770;BME280;66386;52.122;5.420;2023-03-26T03:36:46;100601.28;;;6.88;98.29
71770;BME280;66386;52.122;5.420;2023-03-26T03:39:14;100597.91;;;6.87;97.85
71770;BME280;66386;52.122;5.420;2023-03-26T03:41:41;100597.88;;;6.89;98.08
71770;BME280;66386;52.122;5.420;2023-03-26T03:44:07;100598.72;;;6.89;97.95
71770;BME280;66386;52.122;5.420;2023-03-26T03:46:34;100599.50;;;6.91;98.23
71770;BME280;66386;52.122;5.420;2023-03-26T03:49:01;100601.19;;;6.92;98.25
71770;BME280;66386;52.122;5.420;2023-03-26T03:51:28;100597.75;;;6.93;98.15
71770;BME280;66386;52.122;5.420;2023-03-26T03:53:55;100596.88;;;6.94;98.40
71770;BME280;66386;52.122;5.420;2023-03-26T03:56:21;100594.31;;;6.94;98.51
71770;BME280;66386;52.122;5.420;2023-03-26T03:58:49;100601.94;;;6.96;98.32
71770;BME280;66386;52.122;5.420;2023-03-26T04:01:15;100592.56;;;6.96;98.31
71770;BME280;66386;52.122;5.420;2023-03-26T04:03:42;100592.56;;;6.96;98.36
71770;BME280;66386;52.122;5.420;2023-03-26T04:06:12;100590.00;;;6.98;98.63
71770;BME280;66386;52.122;5.420;2023-03-26T04:08:39;100587.38;;;6.99;98.38
71770;BME280;66386;52.122;5.420;2023-03-26T04:11:05;100588.25;;;6.98;98.55
71770;BME280;66386;52.122;5.420;2023-03-26T04:13:32;100578.88;;;6.99;98.54
71770;BME280;66386;52.122;5.420;2023-03-26T04:15:58;100574.63;;;6.99;98.38
71770;BME280;66386;52.122;5.420;2023-03-26T04:18:25;100566.09;;;6.99;98.42
71770;BME280;66386;52.122;5.420;2023-03-26T04:20:53;100560.97;;;6.99;98.56
71770;BME280;66386;52.122;5.420;2023-03-26T04:23:20;100558.38;;;7.01;98.42
71770;BME280;66386;52.122;5.420;2023-03-26T04:25:50;100559.28;;;6.99;98.33
71770;BME280;66386;52.122;5.420;2023-03-26T04:28:32;100556.69;;;7.01;98.22
71770;BME280;66386;52.122;5.420;2023-03-26T04:31:01;100556.72;;;6.99;98.64
71770;BME280;66386;52.122;5.420;2023-03-26T04:33:32;100552.44;;;7.00;98.54
71770;BME280;66386;52.122;5.420;2023-03-26T04:36:00;100554.19;;;6.99;98.51
71770;BME280;66386;52.122;5.420;2023-03-26T04:38:30;100541.41;;;6.99;98.38
71770;BME280;66386;52.122;5.420;2023-03-26T04:41:00;100536.28;;;6.99;98.52
71770;BME280;66386;52.122;5.420;2023-03-26T04:43:29;100525.16;;;7.01;98.44
71770;BME280;66386;52.122;5.420;2023-03-26T04:45:56;100526.91;;;7.00;98.27
71770;BME280;66386;52.122;5.420;2023-03-26T04:48:22;100526.03;;;7.01;98.37
71770;BME280;66386;52.122;5.420;2023-03-26T04:50:49;100513.25;;;7.01;98.51
71770;BME280;66386;52.122;5.420;2023-03-26T04:53:17;100516.63;;;7.02;98.36
71770;BME280;66386;52.122;5.420;2023-03-26T04:55:54;100514.06;;;7.02;98.19
71770;BME280;66386;52.122;5.420;2023-03-26T04:58:22;100514.06;;;7.02;98.28
71770;BME280;66386;52.122;5.420;2023-03-26T05:00:55;100514.91;;;7.02;98.40
71770;BME280;66386;52.122;5.420;2023-03-26T05:03:22;100506.41;;;7.02;98.36
71770;BME280;66386;52.122;5.420;2023-03-26T05:05:48;100493.63;;;7.02;98.38
71770;BME280;66386;52.122;5.420;2023-03-26T05:08:15;100491.06;;;7.02;98.18
71770;BME280;66386;52.122;5.420;2023-03-26T05:10:42;100490.22;;;7.03;98.32
71770;BME280;66386;52.122;5.420;2023-03-26T05:13:08;100488.53;;;7.02;98.24
71770;BME280;66386;52.122;5.420;2023-03-26T05:15:34;100484.25;;;7.02;98.37
71770;BME280;66386;52.122;5.420;2023-03-26T05:18:01;100487.66;;;7.03;98.48
71770;BME280;66386;52.122;5.420;2023-03-26T05:20:29;100482.53;;;7.03;98.39
71770;BME280;66386;52.122;5.420;2023-03-26T05:22:56;100481.63;;;7.04;98.34
71770;BME280;66386;52.122;5.420;2023-03-26T05:25:22;100478.22;;;7.05;98.37
71770;BME280;66386;52.122;5.420;2023-03-26T05:27:49;100479.03;;;7.05;98.33
71770;BME280;66386;52.122;5.420;2023-03-26T05:30:18;100473.94;;;7.05;98.17
71770;BME280;66386;52.122;5.420;2023-03-26T05:32:45;100466.31;;;7.04;98.24
71770;BME280;66386;52.122;5.420;2023-03-26T05:35:15;100463.75;;;7.04;98.22
71770;BME280;66386;52.122;5.420;2023-03-26T05:37:45;100468.00;;;7.05;98.41
71770;BME280;66386;52.122;5.420;2023-03-26T05:40:13;100468.88;;;7.04;98.35
71770;BME280;66386;52.122;5.420;2023-03-26T05:42:42;100462.88;;;7.05;98.31
71770;BME280;66386;52.122;5.420;2023-03-26T05:45:10;100452.66;;;7.05;98.19
71770;BME280;66386;52.122;5.420;2023-03-26T05:47:38;100462.00;;;7.06;98.24
71770;BME280;66386;52.122;5.420;2023-03-26T05:50:05;100439.00;;;7.06;98.23
71770;BME280;66386;52.122;5.420;2023-03-26T05:52:32;100448.38;;;7.07;98.06
71770;BME280;66386;52.122;5.420;2023-03-26T05:54:58;100445.81;;;7.07;98.18
71770;BME280;66386;52.122;5.420;2023-03-26T05:57:28;100440.69;;;7.07;98.13
71770;BME280;66386;52.122;5.420;2023-03-26T05:59:54;100438.91;;;7.09;98.17
71770;BME280;66386;52.122;5.420;2023-03-26T06:02:21;100438.88;;;7.10;98.09
71770;BME280;66386;52.122;5.420;2023-03-26T06:04:48;100438.81;;;7.12;98.08
71770;BME280;66386;52.122;5.420;2023-03-26T06:07:16;100431.16;;;7.12;98.24
71770;BME280;66386;52.122;5.420;2023-03-26T06:09:43;100426.84;;;7.14;98.25
71770;BME280;66386;52.122;5.420;2023-03-26T06:12:10;100429.38;;;7.15;97.98
71770;BME280;66386;52.122;5.420;2023-03-26T06:14:37;100424.25;;;7.15;98.15
71770;BME280;66386;52.122;5.420;2023-03-26T06:17:04;100414.81;;;7.18;98.05
71770;BME280;66386;52.122;5.420;2023-03-26T06:19:30;100418.16;;;7.20;98.06
71770;BME280;66386;52.122;5.420;2023-03-26T06:21:57;100410.44;;;7.21;98.02
71770;BME280;66386;52.122;5.420;2023-03-26T06:24:23;100411.25;;;7.23;98.04
71770;BME280;66386;52.122;5.420;2023-03-26T06:26:49;100406.03;;;7.26;97.91
71770;BME280;66386;52.122;5.420;2023-03-26T06:29:17;100402.66;;;7.26;98.03
71770;BME280;66386;52.122;5.420;2023-03-26T06:31:43;100403.38;;;7.29;97.71
71770;BME280;66386;52.122;5.420;2023-03-26T06:34:10;100400.72;;;7.32;97.87
71770;BME280;66386;52.122;5.420;2023-03-26T06:36:36;100399.84;;;7.33;98.10
71770;BME280;66386;52.122;5.420;2023-03-26T06:39:03;100400.63;;;7.36;97.91
71770;BME280;66386;52.122;5.420;2023-03-26T06:41:34;100397.97;;;7.39;97.73
71770;BME280;66386;52.122;5.420;2023-03-26T06:44:00;100398.78;;;7.41;97.96
71770;BME280;66386;52.122;5.420;2023-03-26T06:46:27;100399.56;;;7.43;97.65
71770;BME280;66386;52.122;5.420;2023-03-26T06:48:54;100398.63;;;7.45;97.78
71770;BME280;66386;52.122;5.420;2023-03-26T06:51:20;100398.59;;;7.47;97.63
71770;BME280;66386;52.122;5.420;2023-03-26T06:53:46;100394.31;;;7.47;97.53
71770;BME280;66386;52.122;5.420;2023-03-26T06:56:13;100401.97;;;7.47;97.61
71770;BME280;66386;52.122;5.420;2023-03-26T06:58:39;100395.16;;;7.48;97.57
71770;BME280;66386;52.122;5.420;2023-03-26T07:01:06;100390.88;;;7.48;97.65
71770;BME280;66386;52.122;5.420;2023-03-26T07:03:33;100401.09;;;7.48;97.55
71770;BME280;66386;52.122;5.420;2023-03-26T07:05:59;100394.31;;;7.47;97.65
71770;BME280;66386;52.122;5.420;2023-03-26T07:08:26;100395.22;;;7.46;97.24
71770;BME280;66386;52.122;5.420;2023-03-26T07:10:52;100396.03;;;7.47;97.15
71770;BME280;66386;52.122;5.420;2023-03-26T07:13:19;100391.69;;;7.49;97.39
71770;BME280;66386;52.122;5.420;2023-03-26T07:15:47;100398.50;;;7.50;97.15
71770;BME280;66386;52.122;5.420;2023-03-26T07:18:14;100389.13;;;7.50;97.28
71770;BME280;66386;52.122;5.420;2023-03-26T07:20:40;100389.03;;;7.54;97.03
71770;BME280;66386;52.122;5.420;2023-03-26T07:23:09;100390.56;;;7.58;97.11
71770;BME280;66386;52.122;5.420;2023-03-26T07:25:37;100397.31;;;7.60;97.10
71770;BME280;66386;52.122;5.420;2023-03-26T07:28:21;100390.41;;;7.64;97.19
71770;BME280;66386;52.122;5.420;2023-03-26T07:31:06;100394.59;;;7.65;97.18
71770;BME280;66386;52.122;5.420;2023-03-26T07:36:28;100387.59;;;7.72;97.10
71770;BME280;66386;52.122;5.420;2023-03-26T07:39:13;100388.31;;;7.75;97.25
71770;BME280;66386;52.122;5.420;2023-03-26T07:44:44;100389.88;;;7.79;97.17
71770;BME280;66386;52.122;5.420;2023-03-26T07:47:31;100379.59;;;7.81;97.04
71770;BME280;66386;52.122;5.420;2023-03-26T07:49:58;100389.72;;;7.84;97.06
71770;BME280;66386;52.122;5.420;2023-03-26T07:52:26;100376.94;;;7.84;96.92
71770;BME280;66386;52.122;5.420;2023-03-26T07:54:54;100381.06;;;7.88;96.88
71770;BME280;66386;52.122;5.420;2023-03-26T07:57:43;100377.53;;;7.92;96.79
71770;BME280;66386;52.122;5.420;2023-03-26T08:00:21;100379.16;;;7.95;96.61
71770;BME280;66386;52.122;5.420;2023-03-26T08:06:04;100376.38;;;8.01;96.47
71770;BME280;66386;52.122;5.420;2023-03-26T08:14:01;100373.66;;;8.06;96.16
71770;BME280;66386;52.122;5.420;2023-03-26T08:16:35;100375.34;;;8.07;95.79
71770;BME280;66386;52.122;5.420;2023-03-26T08:21:44;100372.72;;;8.08;95.95
71770;BME280;66386;52.122;5.420;2023-03-26T08:24:32;100374.41;;;8.09;95.93
71770;BME280;66386;52.122;5.420;2023-03-26T08:27:14;100369.47;;;8.04;95.73
71770;BME280;66386;52.122;5.420;2023-03-26T08:30:13;100373.06;;;7.99;95.35
71770;BME280;66386;52.122;5.420;2023-03-26T08:32:48;100371.31;;;7.99;95.28
71770;BME280;66386;52.122;5.420;2023-03-26T08:35:18;100376.38;;;8.01;95.41
71770;BME280;66386;52.122;5.420;2023-03-26T08:37:44;100370.34;;;8.03;95.32
71770;BME280;66386;52.122;5.420;2023-03-26T08:40:11;100371.22;;;8.02;95.46
71770;BME280;66386;52.122;5.420;2023-03-26T08:42:56;100364.41;;;8.01;95.43
71770;BME280;66386;52.122;5.420;2023-03-26T08:45:43;100364.53;;;7.98;95.41
71770;BME280;66386;52.122;5.420;2023-03-26T08:48:27;100365.50;;;7.96;95.19
71770;BME280;66386;52.122;5.420;2023-03-26T09:03:06;100372.53;;;7.89;95.40
71770;BME280;66386;52.122;5.420;2023-03-26T09:08:40;100369.38;;;7.81;95.38
71770;BME280;66386;52.122;5.420;2023-03-26T09:33:55;100372.19;;;7.73;95.61
71770;BME280;66386;52.122;5.420;2023-03-26T09:42:08;100372.69;;;7.84;95.48
71770;BME280;66386;52.122;5.420;2023-03-26T09:47:26;100380.19;;;7.89;95.60
71770;BME280;66386;52.122;5.420;2023-03-26T09:50:22;100379.31;;;7.90;95.54
71770;BME280;66386;52.122;5.420;2023-03-26T09:58:28;100387.81;;;7.91;95.15
71770;BME280;66386;52.122;5.420;2023-03-26T10:03:57;100394.78;;;7.85;95.02
71770;BME280;66386;52.122;5.420;2023-03-26T10:12:21;100402.56;;;7.82;94.49
71770;BME280;66386;52.122;5.420;2023-03-26T10:17:39;100403.47;;;7.81;94.30
71770;BME280;66386;52.122;5.420;2023-03-26T10:20:34;100403.59;;;7.77;94.22
71770;BME280;66386;52.122;5.420;2023-03-26T10:32:15;100414.53;;;7.82;93.95
71770;BME280;66386;52.122;5.420;2023-03-26T10:38:00;100417.19;;;7.79;94.08
71770;BME280;66386;52.122;5.420;2023-03-26T10:40:58;100412.13;;;7.77;93.86
71770;BME280;66386;52.122;5.420;2023-03-26T10:51:45;100422.81;;;7.90;94.13
71770;BME280;66386;52.122;5.420;2023-03-26T10:57:42;100427.94;;;7.90;93.98
71770;BME280;66386;52.122;5.420;2023-03-26T11:00:13;100424.69;;;7.85;93.82
71770;BME280;66386;52.122;5.420;2023-03-26T11:05:43;100433.97;;;7.61;93.77
71770;BME280;66386;52.122;5.420;2023-03-26T11:08:19;100440.06;;;7.57;93.51
71770;BME280;66386;52.122;5.420;2023-03-26T11:11:09;100438.44;;;7.54;93.64
71770;BME280;66386;52.122;5.420;2023-03-26T11:13:51;100443.44;;;7.57;93.49
71770;BME280;66386;52.122;5.420;2023-03-26T11:19:35;100444.22;;;7.59;93.00
71770;BME280;66386;52.122;5.420;2023-03-26T11:22:26;100444.31;;;7.56;92.88
71770;BME280;66386;52.122;5.420;2023-03-26T11:25:01;100447.88;;;7.52;92.38
71770;BME280;66386;52.122;5.420;2023-03-26T11:32:59;100457.44;;;7.74;92.16
71770;BME280;66386;52.122;5.420;2023-03-26T11:35:30;100455.59;;;7.79;92.12
71770;BME280;66386;52.122;5.420;2023-03-26T11:38:22;100454.78;;;7.77;90.96
71770;BME280;66386;52.122;5.420;2023-03-26T11:40:53;100460.00;;;7.74;90.53
71770;BME280;66386;52.122;5.420;2023-03-26T11:43:25;100464.47;;;7.67;90.66
71770;BME280;66386;52.122;5.420;2023-03-26T11:45:55;100472.19;;;7.65;90.63
71770;BME280;66386;52.122;5.420;2023-03-26T11:51:01;100474.38;;;7.49;90.36
71770;BME280;66386;52.122;5.420;2023-03-26T11:53:32;100469.41;;;7.45;90.17
71770;BME280;66386;52.122;5.420;2023-03-26T11:56:04;100468.59;;;7.43;90.46
71770;BME280;66386;52.122;5.420;2023-03-26T12:01:11;100474.44;;;7.48;90.78
71770;BME280;66386;52.122;5.420;2023-03-26T12:03:38;100471.00;;;7.47;90.45
71770;BME280;66386;52.122;5.420;2023-03-26T12:06:21;100479.34;;;7.54;90.30
71770;BME280;66386;52.122;5.420;2023-03-26T12:08:52;100480.03;;;7.59;90.34
71770;BME280;66386;52.122;5.420;2023-03-26T12:11:23;100480.66;;;7.67;90.70
71770;BME280;66386;52.122;5.420;2023-03-26T12:14:01;100480.41;;;7.75;90.98
71770;BME280;66386;52.122;5.420;2023-03-26T12:16:29;100475.16;;;7.80;91.34
71770;BME280;66386;52.122;5.420;2023-03-26T12:19:18;100487.91;;;7.81;91.01
71770;BME280;66386;52.122;5.420;2023-03-26T12:21:50;100486.88;;;7.87;90.93
71770;BME280;66386;52.122;5.420;2023-03-26T12:24:29;100489.28;;;7.92;90.93
71770;BME280;66386;52.122;5.420;2023-03-26T12:30:10;100489.66;;;8.08;90.28
71770;BME280;66386;52.122;5.420;2023-03-26T12:32:39;100493.69;;;8.15;89.37
71770;BME280;66386;52.122;5.420;2023-03-26T12:35:23;100496.72;;;8.26;88.36
71770;BME280;66386;52.122;5.420;2023-03-26T12:37:53;100496.28;;;8.40;88.63
71770;BME280;66386;52.122;5.420;2023-03-26T12:40:32;100494.41;;;8.45;88.03
71770;BME280;66386;52.122;5.420;2023-03-26T12:43:03;100497.94;;;8.41;86.03
71770;BME280;66386;52.122;5.420;2023-03-26T12:45:53;100502.38;;;8.36;84.98
71770;BME280;66386;52.122;5.420;2023-03-26T12:48:40;100499.75;;;8.37;83.72
71770;BME280;66386;52.122;5.420;2023-03-26T12:51:17;100511.03;;;8.32;83.76
71770;BME280;66386;52.122;5.420;2023-03-26T12:57:18;100517.75;;;8.36;82.90
71770;BME280;66386;52.122;5.420;2023-03-26T13:17:43;100528.63;;;8.69;76.53
71770;BME280;66386;52.122;5.420;2023-03-26T13:23:16;100530.81;;;8.80;75.19
71770;BME280;66386;52.122;5.420;2023-03-26T13:26:08;100536.25;;;8.71;75.44
71770;BME280;66386;52.122;5.420;2023-03-26T13:37:03;100546.44;;;8.72;75.15
71770;BME280;66386;52.122;5.420;2023-03-26T13:40:00;100551.56;;;8.72;75.74
71770;BME280;66386;52.122;5.420;2023-03-26T13:42:41;100549.00;;;8.72;74.85
71770;BME280;66386;52.122;5.420;2023-03-26T13:45:22;100555.50;;;8.83;75.32
71770;BME280;66386;52.122;5.420;2023-03-26T13:47:54;100551.66;;;8.95;74.78
71770;BME280;66386;52.122;5.420;2023-03-26T13:55:39;100565.00;;;9.04;73.24
71770;BME280;66386;52.122;5.420;2023-03-26T14:01:09;100571.44;;;9.16;73.52
71770;BME280;66386;52.122;5.420;2023-03-26T14:09:43;100570.13;;;9.04;72.17
71770;BME280;66386;52.122;5.420;2023-03-26T14:12:31;100569.56;;;8.96;72.04
71770;BME280;66386;52.122;5.420;2023-03-26T14:17:47;100585.25;;;8.87;70.64
71770;BME280;66386;52.122;5.420;2023-03-26T14:20:45;100591.41;;;8.81;71.31
71770;BME280;66386;52.122;5.420;2023-03-26T14:31:56;100606.78;;;8.56;71.85
71770;BME280;66386;52.122;5.420;2023-03-26T14:34:40;100608.56;;;8.52;70.09
71770;BME280;66386;52.122;5.420;2023-03-26T14:45:40;100631.06;;;8.43;68.95
71770;BME280;66386;52.122;5.420;2023-03-26T14:48:34;100643.06;;;8.41;69.39
71770;BME280;66386;52.122;5.420;2023-03-26T14:51:26;100641.44;;;8.38;69.90
71770;BME280;66386;52.122;5.420;2023-03-26T14:54:01;100642.28;;;8.38;69.65
71770;BME280;66386;52.122;5.420;2023-03-26T15:03:12;100664.97;;;8.23;68.86
71770;BME280;66386;52.122;5.420;2023-03-26T15:06:05;100668.41;;;8.21;69.36
71770;BME280;66386;52.122;5.420;2023-03-26T15:11:52;100680.00;;;8.33;70.59
71770;BME280;66386;52.122;5.420;2023-03-26T15:14:56;100680.97;;;8.29;68.76
71770;BME280;66386;52.122;5.420;2023-03-26T15:35:08;100713.38;;;8.30;66.01
71770;BME280;66386;52.122;5.420;2023-03-26T15:40:25;100705.34;;;8.13;64.29
71770;BME280;66386;52.122;5.420;2023-03-26T15:53:28;100726.72;;;7.80;65.60
71770;BME280;66386;52.122;5.420;2023-03-26T15:58:49;100761.75;;;7.78;66.20
71770;BME280;66386;52.122;5.420;2023-03-26T16:01:28;100760.03;;;7.79;65.66
71770;BME280;66386;52.122;5.420;2023-03-26T16:06:56;100772.13;;;7.72;65.98
71770;BME280;66386;52.122;5.420;2023-03-26T16:14:43;100792.16;;;7.56;63.97
71770;BME280;66386;52.122;5.420;2023-03-26T16:17:18;100803.34;;;7.52;65.45
71770;BME280;66386;52.122;5.420;2023-03-26T16:19:54;100795.59;;;7.55;65.23
71770;BME280;66386;52.122;5.420;2023-03-26T16:25:24;100802.63;;;7.47;64.77
71770;BME280;66386;52.122;5.420;2023-03-26T16:30:35;100815.53;;;7.42;64.20
71770;BME280;66386;52.122;5.420;2023-03-26T16:33:12;100822.47;;;7.36;63.11
71770;BME280;66386;52.122;5.420;2023-03-26T16:36:01;100821.72;;;7.32;63.80
71770;BME280;66386;52.122;5.420;2023-03-26T16:38:46;100833.66;;;7.31;63.93
71770;BME280;66386;52.122;5.420;2023-03-26T16:41:33;100840.53;;;7.29;63.54
71770;BME280;66386;52.122;5.420;2023-03-26T16:47:15;100856.16;;;7.17;62.71
71770;BME280;66386;52.122;5.420;2023-03-26T16:50:23;100870.69;;;7.15;63.17
71770;BME280;66386;52.122;5.420;2023-03-26T16:58:53;100878.44;;;7.10;62.37
71770;BME280;66386;52.122;5.420;2023-03-26T17:01:38;100887.91;;;7.07;61.34
71770;BME280;66386;52.122;5.420;2023-03-26T17:04:17;100891.44;;;7.01;61.21
71770;BME280;66386;52.122;5.420;2023-03-26T17:07:37;100910.25;;;6.97;62.23
71770;BME280;66386;52.122;5.420;2023-03-26T17:12:56;100921.50;;;6.88;63.00
71770;BME280;66386;52.122;5.420;2023-03-26T17:21:16;100929.38;;;6.77;63.09
71770;BME280;66386;52.122;5.420;2023-03-26T17:24:13;100939.72;;;6.71;61.94
71770;BME280;66386;52.122;5.420;2023-03-26T17:29:55;100961.25;;;6.58;60.48
71770;BME280;66386;52.122;5.420;2023-03-26T17:32:55;100962.97;;;6.57;60.82
71770;BME280;66386;52.122;5.420;2023-03-26T17:35:50;100961.28;;;6.56;61.41
71770;BME280;66386;52.122;5.420;2023-03-26T17:40:54;100975.81;;;6.53;61.75
71770;BME280;66386;52.122;5.420;2023-03-26T17:48:59;100992.16;;;6.41;62.04
71770;BME280;66386;52.122;5.420;2023-03-26T17:51:45;100991.38;;;6.39;61.69
71770;BME280;66386;52.122;5.420;2023-03-26T17:54:26;100998.31;;;6.31;61.54
71770;BME280;66386;52.122;5.420;2023-03-26T17:56:55;101011.13;;;6.27;61.54
71770;BME280;66386;52.122;5.420;2023-03-26T17:59:26;101012.00;;;6.25;61.53
71770;BME280;66386;52.122;5.420;2023-03-26T18:02:01;101017.13;;;6.23;61.41
71770;BME280;66386;52.122;5.420;2023-03-26T18:04:33;101022.28;;;6.20;60.53
71770;BME280;66386;52.122;5.420;2023-03-26T18:07:06;101033.44;;;6.15;60.97
71770;BME280;66386;52.122;5.420;2023-03-26T18:18:21;101060.19;;;5.87;61.98
71770;BME280;66386;52.122;5.420;2023-03-26T18:20:51;101057.66;;;5.84;62.26
71770;BME280;66386;52.122;5.420;2023-03-26T18:23:34;101067.06;;;5.79;62.65
71770;BME280;66386;52.122;5.420;2023-03-26T18:26:15;101065.34;;;5.80;61.96